Time;durP1;ratioP1;P1;durP2;ratioP2;P2;SDS_P1;SDS_P2;PMS_P1;PMS_P2;Temp;Humidity;BMP_temperature;BMP_pressure;BME280_temperature;BME280_humidity;BME280_pressure;Samples;Min_cycle;Max_cycle;Signal;HPM_P1;HPM_P2
2021/04/17 00:01:45;;;;;;;14.43;9.27;;;5.90;51.80;;;;;;5032451;28;20034;-84
2021/04/17 00:04:11;;;;;;;14.20;9.20;;;6.00;51.90;;;;;;5033111;28;20046;-84
2021/04/17 00:06:38;;;;;;;15.40;9.53;;;6.10;52.00;;;;;;5030439;28;20025;-84
2021/04/17 00:09:09;;;;;;;13.40;9.33;;;6.20;51.70;;;;;;5024771;28;20470;-84
2021/04/17 00:11:37;;;;;;;11.67;9.63;;;6.30;52.20;;;;;;5047195;28;20029;-84
2021/04/17 00:14:06;;;;;;;14.23;9.73;;;6.30;51.40;;;;;;5032557;28;20268;-84
2021/04/17 00:16:32;;;;;;;16.20;10.70;;;6.30;51.30;;;;;;5032235;28;20079;-84
2021/04/17 00:18:58;;;;;;;13.00;9.70;;;6.20;51.90;;;;;;5032787;28;20041;-84
2021/04/17 00:21:24;;;;;;;20.60;11.10;;;6.20;51.80;;;;;;5025105;28;20036;-84
2021/04/17 00:23:52;;;;;;;17.47;10.33;;;6.10;52.00;;;;;;5026007;28;20482;-85
2021/04/17 00:26:17;;;;;;;14.33;10.13;;;6.10;52.20;;;;;;5045342;28;20037;-84
2021/04/17 00:28:43;;;;;;;13.63;10.20;;;6.00;52.40;;;;;;5031955;28;20035;-85
2021/04/17 00:31:09;;;;;;;15.00;9.93;;;6.00;52.60;;;;;;5030785;28;20071;-84
2021/04/17 00:33:35;;;;;;;13.93;10.83;;;6.00;52.60;;;;;;5029699;28;20040;-85
2021/04/17 00:36:00;;;;;;;15.33;10.53;;;6.10;52.60;;;;;;5030717;28;20048;-85
2021/04/17 00:38:28;;;;;;;14.10;10.33;;;6.00;52.50;;;;;;5029284;28;20029;-85
2021/04/17 00:40:54;;;;;;;15.90;10.23;;;6.00;52.50;;;;;;5029098;28;20033;-84
2021/04/17 00:43:20;;;;;;;14.23;10.33;;;5.90;52.60;;;;;;5029091;28;20094;-85
2021/04/17 00:45:46;;;;;;;13.73;10.30;;;5.80;52.80;;;;;;5032345;28;20021;-85
2021/04/17 00:48:13;;;;;;;13.77;10.20;;;5.70;52.90;;;;;;5023315;28;20033;-85
2021/04/17 00:50:40;;;;;;;16.70;10.20;;;5.70;52.70;;;;;;5017785;28;21890;-84
2021/04/17 00:53:07;;;;;;;15.33;10.83;;;5.70;52.70;;;;;;5032614;28;20040;-84
2021/04/17 00:55:33;;;;;;;13.10;9.80;;;5.70;52.80;;;;;;5027103;28;20053;-85
2021/04/17 00:58:03;;;;;;;15.00;9.73;;;5.70;52.70;;;;;;5032395;28;20401;-85
2021/04/17 01:00:29;;;;;;;15.27;10.13;;;5.70;52.80;;;;;;5030012;28;20034;-85
2021/04/17 01:03:24;;;;;;;13.53;9.93;;;5.70;52.80;;;;;;5031969;28;20041;-85
2021/04/17 01:05:55;;;;;;;14.10;10.10;;;5.70;53.10;;;;;;5025417;28;20799;-85
2021/04/17 01:08:40;;;;;;;13.73;10.23;;;5.60;53.00;;;;;;5022281;28;20021;-85
2021/04/17 01:11:10;;;;;;;13.57;10.13;;;5.60;53.20;;;;;;5030621;28;20038;-85
2021/04/17 01:13:37;;;;;;;15.47;11.37;;;5.50;53.20;;;;;;5031177;28;20030;-85
2021/04/17 01:16:04;;;;;;;16.47;11.57;;;5.50;53.30;;;;;;5025458;28;20125;-85
2021/04/17 01:18:32;;;;;;;14.73;9.83;;;5.50;53.50;;;;;;5033024;28;20494;-85
2021/04/17 01:20:59;;;;;;;13.37;10.17;;;5.40;53.60;;;;;;5033346;28;20033;-84
2021/04/17 01:23:39;;;;;;;14.77;10.30;;;5.40;53.70;;;;;;5029975;28;20032;-85
2021/04/17 01:26:21;;;;;;;16.60;11.00;;;5.40;53.80;;;;;;5021174;28;20087;-85
2021/04/17 01:28:50;;;;;;;16.77;11.83;;;5.40;53.90;;;;;;5014254;28;20029;-84
2021/04/17 01:31:18;;;;;;;17.37;11.80;;;5.40;53.90;;;;;;5025363;28;20109;-85
2021/04/17 01:33:50;;;;;;;17.03;10.67;;;5.30;54.00;;;;;;5027040;28;20038;-84
2021/04/17 01:36:17;;;;;;;17.13;11.73;;;5.30;54.20;;;;;;5026822;28;20033;-84
2021/04/17 01:38:50;;;;;;;14.80;10.90;;;5.30;54.20;;;;;;5017783;28;20033;-85
2021/04/17 01:41:33;;;;;;;17.83;11.30;;;5.20;54.40;;;;;;5030183;28;20048;-85
2021/04/17 01:43:59;;;;;;;;;;;5.30;54.40;;;;;;5032045;28;20033;-85
2021/04/17 01:46:28;;;;;;;14.70;11.07;;;5.20;54.30;;;;;;5031286;28;20249;-84
2021/04/17 01:49:03;;;;;;;13.97;10.30;;;5.20;54.30;;;;;;5028947;28;20025;-85
2021/04/17 01:51:32;;;;;;;15.03;10.00;;;5.20;54.40;;;;;;5031271;28;20048;-84
2021/04/17 01:54:01;;;;;;;16.57;11.30;;;5.20;54.40;;;;;;5019733;28;20072;-85
2021/04/17 01:56:29;;;;;;;16.53;11.30;;;5.20;54.40;;;;;;5014958;28;20025;-85
2021/04/17 01:58:58;;;;;;;14.77;11.13;;;5.20;54.40;;;;;;5023526;28;20025;-85
2021/04/17 02:01:24;;;;;;;19.67;10.83;;;5.30;54.40;;;;;;5032449;28;20076;-85
2021/04/17 02:03:50;;;;;;;16.43;11.07;;;5.30;54.30;;;;;;5020261;28;20481;-85
2021/04/17 02:06:16;;;;;;;19.13;12.37;;;5.30;54.10;;;;;;5023102;28;20022;-85
2021/04/17 02:08:42;;;;;;;18.57;11.10;;;5.30;54.80;;;;;;5020932;28;20080;-85
2021/04/17 02:11:08;;;;;;;19.60;12.10;;;5.30;54.50;;;;;;5024526;28;20017;-84
2021/04/17 02:13:35;;;;;;;18.20;12.20;;;5.20;54.70;;;;;;5026891;28;20040;-85
2021/04/17 02:16:10;;;;;;;17.83;12.80;;;5.20;55.40;;;;;;5011302;28;20432;-85
2021/04/17 02:18:50;;;;;;;21.80;13.13;;;5.10;55.10;;;;;;5024201;28;20052;-85
2021/04/17 02:21:21;;;;;;;16.80;13.47;;;5.10;55.20;;;;;;5031479;28;20025;-85
2021/04/17 02:23:47;;;;;;;28.13;14.37;;;5.10;55.40;;;;;;5012096;28;20390;-84
2021/04/17 02:26:14;;;;;;;14.87;10.70;;;5.00;55.60;;;;;;5032377;28;20064;-85
2021/04/17 02:28:40;;;;;;;18.30;11.10;;;5.00;55.80;;;;;;5029244;28;20481;-85
2021/04/17 02:31:06;;;;;;;15.17;10.67;;;5.00;55.60;;;;;;5022826;28;20026;-85
2021/04/17 02:33:31;;;;;;;14.97;10.37;;;5.00;55.60;;;;;;5022266;28;20538;-85
2021/04/17 02:35:58;;;;;;;15.93;11.37;;;5.00;55.50;;;;;;5030500;28;20035;-85
2021/04/17 02:38:23;;;;;;;16.67;12.30;;;5.00;55.40;;;;;;5031444;28;20081;-85
2021/04/17 02:40:50;;;;;;;16.47;12.80;;;5.00;55.30;;;;;;5026181;28;20021;-84
2021/04/17 02:43:15;;;;;;;16.33;11.33;;;5.00;55.40;;;;;;5048985;28;20041;-85
2021/04/17 02:45:41;;;;;;;16.00;11.73;;;4.90;55.60;;;;;;5025035;28;20022;-83
2021/04/17 02:48:07;;;;;;;16.53;10.80;;;4.90;55.60;;;;;;5029175;28;20027;-84
2021/04/17 02:50:33;;;;;;;17.57;10.83;;;4.90;55.50;;;;;;5029114;28;20386;-84
2021/04/17 02:52:59;;;;;;;15.97;11.83;;;4.90;55.40;;;;;;5028033;28;20029;-83
2021/04/17 02:55:24;;;;;;;19.57;13.57;;;4.90;55.50;;;;;;5034516;28;20042;-83
2021/04/17 02:57:51;;;;;;;19.03;12.07;;;4.90;55.50;;;;;;5034347;28;20056;-83
2021/04/17 03:00:22;;;;;;;15.87;11.17;;;4.90;55.50;;;;;;5022733;28;20029;-83
2021/04/17 03:02:49;;;;;;;18.40;12.00;;;4.80;55.30;;;;;;5048785;28;20037;-83
2021/04/17 03:05:15;;;;;;;15.87;10.83;;;4.80;55.40;;;;;;5038620;28;20554;-83
2021/04/17 03:07:41;;;;;;;19.07;11.90;;;4.80;55.40;;;;;;5030567;28;20018;-83
2021/04/17 03:10:08;;;;;;;18.17;10.50;;;4.80;55.20;;;;;;5022291;28;20026;-83
2021/04/17 03:12:35;;;;;;;17.07;10.80;;;4.70;55.30;;;;;;5032751;28;20035;-84
2021/04/17 03:15:02;;;;;;;16.37;12.17;;;4.70;55.50;;;;;;5022569;28;20099;-83
2021/04/17 03:17:28;;;;;;;21.83;13.20;;;4.60;55.70;;;;;;5031956;28;20029;-84
2021/04/17 03:19:54;;;;;;;17.60;11.80;;;4.60;55.90;;;;;;5034262;28;20116;-83
2021/04/17 03:22:19;;;;;;;18.53;10.63;;;4.60;55.90;;;;;;5033152;28;20033;-83
2021/04/17 03:24:45;;;;;;;15.73;11.10;;;4.60;55.80;;;;;;5023123;28;20018;-83
2021/04/17 03:27:11;;;;;;;17.37;11.40;;;4.60;55.70;;;;;;5034378;28;20473;-84
2021/04/17 03:29:36;;;;;;;15.80;10.87;;;4.50;55.70;;;;;;5035319;28;20026;-83
2021/04/17 03:32:02;;;;;;;18.03;12.57;;;4.50;55.70;;;;;;5033999;28;20053;-84
2021/04/17 03:34:28;;;;;;;16.10;11.13;;;4.50;56.20;;;;;;5034417;28;20095;-83
2021/04/17 03:36:54;;;;;;;17.60;11.30;;;4.50;55.90;;;;;;5033662;28;20079;-83
2021/04/17 03:39:20;;;;;;;22.57;11.53;;;4.40;55.90;;;;;;5032776;28;20025;-83
2021/04/17 03:41:46;;;;;;;17.67;11.40;;;4.40;56.00;;;;;;5027707;28;20030;-83
2021/04/17 03:44:12;;;;;;;19.80;12.03;;;4.40;55.90;;;;;;5031050;28;20044;-83
2021/04/17 03:46:38;;;;;;;18.33;11.23;;;4.30;56.00;;;;;;5031954;28;20068;-83
2021/04/17 03:49:04;;;;;;;15.97;11.20;;;4.30;56.00;;;;;;5022366;28;20028;-84
2021/04/17 03:51:30;;;;;;;17.93;12.10;;;4.20;56.10;;;;;;5033877;28;20053;-83
2021/04/17 03:53:56;;;;;;;17.83;11.40;;;4.20;56.10;;;;;;5033482;28;20041;-84
2021/04/17 03:56:22;;;;;;;17.60;10.13;;;4.30;56.20;;;;;;5027358;28;20120;-83
2021/04/17 03:58:48;;;;;;;16.17;10.43;;;4.20;56.30;;;;;;5026174;28;20413;-84
2021/04/17 04:01:14;;;;;;;15.27;10.80;;;4.20;56.40;;;;;;5030230;28;20389;-84
2021/04/17 04:03:40;;;;;;;15.67;12.47;;;4.20;56.60;;;;;;5031419;28;20025;-84
2021/04/17 04:06:06;;;;;;;17.17;11.80;;;4.20;56.50;;;;;;5035332;28;20429;-84
2021/04/17 04:08:31;;;;;;;17.87;11.63;;;4.20;56.50;;;;;;5030309;28;20018;-84
2021/04/17 04:10:57;;;;;;;14.83;10.63;;;4.20;56.60;;;;;;5031035;28;20481;-84
2021/04/17 04:13:23;;;;;;;20.63;12.03;;;4.30;56.60;;;;;;5029992;28;20496;-84
2021/04/17 04:15:49;;;;;;;15.63;11.50;;;4.40;56.50;;;;;;5033207;28;20033;-84
2021/04/17 04:18:15;;;;;;;16.47;11.70;;;4.40;56.30;;;;;;5031912;28;20053;-84
2021/04/17 04:20:40;;;;;;;18.37;11.47;;;4.50;56.10;;;;;;5032464;28;20392;-84
2021/04/17 04:23:06;;;;;;;21.10;11.60;;;4.50;56.00;;;;;;5032323;28;20030;-84
2021/04/17 04:25:33;;;;;;;20.70;12.77;;;4.50;56.10;;;;;;5033053;28;20021;-84
2021/04/17 04:27:58;;;;;;;20.37;13.27;;;4.50;56.20;;;;;;5031612;28;20029;-84
2021/04/17 04:30:24;;;;;;;21.27;13.30;;;4.50;56.20;;;;;;5029875;28;20048;-84
2021/04/17 04:32:50;;;;;;;24.53;14.67;;;4.40;56.10;;;;;;5033921;28;20026;-84
2021/04/17 04:35:16;;;;;;;19.63;13.30;;;4.40;56.30;;;;;;5026049;28;20033;-84
2021/04/17 04:37:43;;;;;;;19.03;12.03;;;4.40;56.20;;;;;;5027256;28;20059;-84
2021/04/17 04:40:09;;;;;;;18.53;12.00;;;4.50;56.40;;;;;;5024689;28;20094;-84
2021/04/17 04:42:36;;;;;;;16.97;11.57;;;4.50;56.40;;;;;;5026494;28;20397;-84
2021/04/17 04:45:04;;;;;;;19.47;12.93;;;4.50;56.30;;;;;;5020984;28;20029;-84
2021/04/17 04:47:30;;;;;;;18.07;13.03;;;4.60;56.20;;;;;;5020968;28;20044;-83
2021/04/17 04:49:56;;;;;;;23.47;15.90;;;4.50;56.30;;;;;;5023252;28;20030;-84
2021/04/17 04:52:22;;;;;;;27.27;16.07;;;4.40;56.60;;;;;;5017937;28;20381;-83
2021/04/17 04:54:48;;;;;;;26.63;17.30;;;4.40;56.70;;;;;;5015305;28;20521;-84
2021/04/17 04:57:13;;;;;;;21.17;14.27;;;4.40;56.70;;;;;;5022681;28;20101;-84
2021/04/17 04:59:39;;;;;;;19.77;12.97;;;4.50;56.60;;;;;;5031477;28;20040;-83
2021/04/17 05:02:05;;;;;;;23.40;13.60;;;4.50;56.60;;;;;;5021150;28;20056;-84
2021/04/17 05:04:31;;;;;;;22.00;13.97;;;4.50;56.50;;;;;;5031564;28;20079;-83
2021/04/17 05:06:57;;;;;;;27.50;15.50;;;4.60;56.50;;;;;;5022768;28;20029;-84
2021/04/17 05:09:23;;;;;;;23.30;14.40;;;4.60;56.40;;;;;;5021837;28;20026;-84
2021/04/17 05:11:49;;;;;;;25.97;14.67;;;4.50;56.40;;;;;;5025500;28;20045;-84
2021/04/17 05:14:14;;;;;;;21.87;14.67;;;4.50;56.60;;;;;;5025923;28;20117;-84
2021/04/17 05:16:40;;;;;;;21.43;14.47;;;4.60;56.70;;;;;;5016736;28;20041;-83
2021/04/17 05:19:06;;;;;;;17.23;12.53;;;4.60;56.60;;;;;;5041428;28;20034;-84
2021/04/17 05:21:33;;;;;;;22.73;14.30;;;4.60;56.50;;;;;;5011114;28;20030;-84
2021/04/17 05:24:00;;;;;;;23.80;14.73;;;4.60;56.30;;;;;;5025240;28;20029;-84
2021/04/17 05:26:26;;;;;;;21.50;14.23;;;4.60;56.10;;;;;;5023678;28;20568;-83
2021/04/17 05:28:52;;;;;;;19.63;14.17;;;4.60;56.10;;;;;;5021060;28;20101;-84
2021/04/17 05:31:18;;;;;;;20.97;14.20;;;4.60;56.20;;;;;;5022991;28;20477;-84
2021/04/17 05:33:44;;;;;;;25.30;14.70;;;4.60;56.10;;;;;;5019725;28;20087;-84
2021/04/17 05:36:10;;;;;;;21.50;14.80;;;4.70;55.80;;;;;;5024020;28;21068;-83
2021/04/17 05:38:36;;;;;;;18.50;13.57;;;4.60;55.80;;;;;;5022753;28;20069;-84
2021/04/17 05:41:03;;;;;;;19.33;13.27;;;4.60;55.90;;;;;;5026546;28;20449;-83
2021/04/17 05:43:28;;;;;;;22.80;14.30;;;4.60;55.80;;;;;;5025306;28;20120;-83
2021/04/17 05:45:55;;;;;;;25.33;15.37;;;4.60;55.90;;;;;;5019414;28;20125;-83
2021/04/17 05:48:20;;;;;;;24.73;15.00;;;4.60;56.30;;;;;;5022193;28;20056;-84
2021/04/17 05:50:46;;;;;;;20.30;13.53;;;4.60;56.50;;;;;;5025449;28;20059;-83
2021/04/17 05:53:12;;;;;;;21.43;15.13;;;4.60;56.50;;;;;;5025732;28;20033;-83
2021/04/17 05:55:39;;;;;;;25.80;15.17;;;4.60;56.60;;;;;;5025111;28;20096;-83
2021/04/17 05:58:05;;;;;;;23.43;14.63;;;4.60;56.70;;;;;;5027663;28;20108;-83
2021/04/17 06:00:31;;;;;;;24.43;14.70;;;4.70;56.70;;;;;;5031080;28;20037;-83
2021/04/17 06:02:57;;;;;;;20.37;14.97;;;4.70;56.70;;;;;;5022725;28;20565;-84
2021/04/17 06:05:22;;;;;;;21.90;14.93;;;4.70;56.60;;;;;;5017213;28;20057;-84
2021/04/17 06:07:48;;;;;;;27.33;15.13;;;4.80;57.10;;;;;;5020950;28;20425;-83
2021/04/17 06:10:14;;;;;;;23.37;14.60;;;4.80;56.40;;;;;;5024321;28;20025;-84
2021/04/17 06:12:40;;;;;;;31.17;16.87;;;4.80;56.30;;;;;;5022790;28;20087;-83
2021/04/17 06:15:08;;;;;;;32.40;16.13;;;4.90;56.40;;;;;;5020724;28;20025;-83
2021/04/17 06:17:34;;;;;;;23.60;15.00;;;4.90;56.40;;;;;;5021555;28;20112;-83
2021/04/17 06:19:59;;;;;;;25.90;15.20;;;5.00;56.30;;;;;;5013485;28;20110;-83
2021/04/17 06:22:25;;;;;;;21.13;14.60;;;5.00;56.40;;;;;;5022614;28;20041;-83
2021/04/17 06:24:51;;;;;;;27.93;16.67;;;5.00;56.20;;;;;;5020985;28;20030;-83
2021/04/17 06:27:17;;;;;;;21.70;15.63;;;5.10;56.20;;;;;;5016963;28;20028;-83
2021/04/17 06:29:42;;;;;;;20.13;14.63;;;5.10;56.20;;;;;;5018135;28;20018;-83
2021/04/17 06:32:32;;;;;;;20.97;15.13;;;5.10;56.20;;;;;;5014737;28;20544;-83
2021/04/17 06:34:58;;;;;;;25.93;15.23;;;5.20;56.20;;;;;;5029939;28;20033;-83
2021/04/17 06:37:24;;;;;;;21.93;15.17;;;5.20;56.00;;;;;;5030495;28;20029;-84
2021/04/17 06:39:50;;;;;;;20.17;14.30;;;5.30;56.00;;;;;;5020745;28;20609;-84
2021/04/17 06:42:19;;;;;;;23.37;15.37;;;5.30;55.90;;;;;;5025239;28;20041;-84
2021/04/17 06:44:46;;;;;;;20.20;14.23;;;5.40;55.90;;;;;;5027534;28;20034;-83
2021/04/17 06:47:17;;;;;;;30.63;15.80;;;5.50;55.80;;;;;;5036788;28;20130;-84
2021/04/17 06:49:43;;;;;;;19.93;14.40;;;5.60;55.60;;;;;;5030156;28;20037;-83
2021/04/17 06:52:13;;;;;;;20.93;14.53;;;5.70;55.50;;;;;;5030494;28;20029;-83
2021/04/17 06:54:40;;;;;;;19.97;14.23;;;5.80;55.40;;;;;;5042190;28;20052;-83
2021/04/17 06:57:06;;;;;;;24.00;14.07;;;5.90;55.20;;;;;;5025751;28;20124;-83
2021/04/17 06:59:33;;;;;;;18.30;13.27;;;5.90;55.00;;;;;;5027972;28;20428;-83
2021/04/17 07:01:59;;;;;;;18.13;13.57;;;5.90;55.10;;;;;;5032011;28;20125;-83
2021/04/17 07:04:27;;;;;;;20.00;13.50;;;6.00;55.00;;;;;;5019819;28;20065;-83
2021/04/17 07:06:53;;;;;;;17.17;12.93;;;6.10;54.90;;;;;;5028401;28;20041;-83
2021/04/17 07:09:23;;;;;;;20.00;14.17;;;6.20;54.90;;;;;;5022293;28;20021;-83
2021/04/17 07:11:49;;;;;;;19.77;13.23;;;6.20;54.70;;;;;;5031087;28;20048;-83
2021/04/17 07:14:16;;;;;;;22.87;14.90;;;6.30;54.60;;;;;;5029640;28;20030;-83
2021/04/17 07:17:09;;;;;;;18.57;13.97;;;6.40;54.60;;;;;;5014931;28;20429;-84
2021/04/17 07:20:01;;;;;;;17.80;13.48;;;6.40;54.60;;;;;;5021142;28;20068;-83
2021/04/17 07:22:30;;;;;;;24.60;13.93;;;6.50;54.60;;;;;;5024910;28;20034;-83
2021/04/17 07:25:17;;;;;;;20.07;14.43;;;6.60;54.40;;;;;;5026784;28;20026;-83
2021/04/17 07:27:51;;;;;;;20.60;14.10;;;6.60;54.30;;;;;;5028311;28;20033;-83
2021/04/17 07:30:17;;;;;;;22.83;15.67;;;6.70;54.50;;;;;;5027018;28;20025;-83
2021/04/17 07:32:47;;;;;;;21.80;15.17;;;6.80;54.90;;;;;;5018259;28;20543;-83
2021/04/17 07:35:16;;;;;;;19.43;14.93;;;6.80;54.40;;;;;;5032778;28;20025;-83
2021/04/17 07:37:45;;;;;;;20.10;13.67;;;6.90;54.30;;;;;;5030053;28;20097;-83
2021/04/17 07:40:19;;;;;;;20.63;13.83;;;7.00;54.20;;;;;;5033081;28;20063;-83
2021/04/17 07:42:56;;;;;;;21.43;14.77;;;7.10;54.20;;;;;;5027322;28;20699;-83
2021/04/17 07:45:29;;;;;;;17.87;13.17;;;7.20;54.10;;;;;;5029934;28;20018;-83
2021/04/17 07:47:59;;;;;;;18.37;12.37;;;7.30;53.80;;;;;;5047700;28;20527;-82
2021/04/17 07:50:32;;;;;;;21.20;14.30;;;7.30;53.40;;;;;;5031057;28;20068;-83
2021/04/17 07:52:58;;;;;;;16.43;12.30;;;7.40;53.20;;;;;;5015449;28;20113;-84
2021/04/17 07:55:30;;;;;;;22.00;14.23;;;7.50;53.30;;;;;;5025256;28;20393;-84
2021/04/17 07:57:57;;;;;;;19.33;13.13;;;7.50;53.30;;;;;;5019785;28;20029;-84
2021/04/17 08:00:24;;;;;;;19.57;12.50;;;7.50;53.30;;;;;;5019440;28;20044;-83
2021/04/17 08:02:52;;;;;;;16.77;12.80;;;7.60;53.10;;;;;;5031507;28;20079;-83
2021/04/17 08:05:20;;;;;;;19.33;13.60;;;7.70;52.90;;;;;;5024076;28;20029;-83
2021/04/17 08:07:48;;;;;;;16.60;12.50;;;7.70;52.70;;;;;;5021980;28;20024;-83
2021/04/17 08:10:15;;;;;;;20.37;14.37;;;7.80;52.70;;;;;;5031660;28;20033;-83
2021/04/17 08:12:43;;;;;;;21.67;15.07;;;7.90;52.60;;;;;;5032927;28;20370;-83
2021/04/17 08:15:15;;;;;;;21.97;15.07;;;7.90;52.40;;;;;;5032695;28;20022;-84
2021/04/17 08:17:58;;;;;;;28.20;17.80;;;8.00;52.30;;;;;;5018637;28;20165;-83
2021/04/17 08:20:24;;;;;;;27.50;16.73;;;8.10;52.00;;;;;;5033276;28;20015;-83
2021/04/17 08:22:53;;;;;;;35.10;19.90;;;8.20;51.90;;;;;;5032130;28;20023;-82
2021/04/17 08:25:24;;;;;;;37.83;20.00;;;8.30;51.70;;;;;;5031538;28;20108;-83
2021/04/17 08:27:51;;;;;;;17.40;11.80;;;8.40;51.40;;;;;;5015083;28;20052;-83
2021/04/17 08:30:26;;;;;;;16.47;12.30;;;8.50;51.20;;;;;;5027647;28;20054;-83
2021/04/17 08:32:53;;;;;;;18.80;12.63;;;8.60;50.90;;;;;;5031985;28;20032;-82
2021/04/17 08:35:20;;;;;;;20.20;13.13;;;8.70;50.70;;;;;;5033614;28;20029;-83
2021/04/17 08:40:35;;;;;;;20.97;11.77;;;9.00;50.50;;;;;;5025995;28;20467;-83
2021/04/17 08:43:24;;;;;;;12.83;9.83;;;9.30;50.20;;;;;;5033534;28;20033;-83
2021/04/17 08:46:00;;;;;;;15.00;11.50;;;9.50;50.00;;;;;;5025260;28;20429;-83
2021/04/17 08:48:52;;;;;;;14.67;11.53;;;9.70;49.30;;;;;;5028590;28;20029;-83
2021/04/17 08:51:21;;;;;;;19.02;11.57;;;9.80;49.10;;;;;;5024723;28;20045;-84
2021/04/17 08:53:52;;;;;;;15.80;11.07;;;10.00;48.90;;;;;;5020974;28;20486;-83
2021/04/17 08:56:18;;;;;;;12.67;10.57;;;10.10;48.50;;;;;;5018462;28;20498;-83
2021/04/17 08:59:09;;;;;;;13.63;10.60;;;10.20;48.20;;;;;;5032313;28;20485;-83
2021/04/17 09:01:42;;;;;;;15.20;12.13;;;10.40;47.70;;;;;;5032860;28;20040;-82
2021/04/17 09:04:10;;;;;;;16.13;10.83;;;10.50;47.40;;;;;;5027455;28;20481;-83
2021/04/17 09:06:40;;;;;;;13.83;10.60;;;10.60;47.10;;;;;;5031475;28;20508;-83
2021/04/17 09:09:15;;;;;;;14.27;11.23;;;10.70;46.70;;;;;;5026384;28;20082;-85
2021/04/17 09:11:45;;;;;;;12.83;9.87;;;10.80;46.40;;;;;;5023332;28;20054;-84
2021/04/17 09:14:26;;;;;;;17.50;11.40;;;10.90;46.20;;;;;;5018036;28;20440;-83
2021/04/17 09:16:52;;;;;;;14.70;9.67;;;11.10;45.80;;;;;;5026188;28;20033;-83
2021/04/17 09:22:24;;;;;;;16.17;12.00;;;11.50;45.10;;;;;;5029671;28;20033;-82
2021/04/17 09:24:55;;;;;;;16.03;11.13;;;11.80;44.80;;;;;;5032172;28;20398;-83
2021/04/17 09:27:24;;;;;;;16.33;11.27;;;11.90;44.60;;;;;;5012729;28;20030;-83
2021/04/17 09:29:58;;;;;;;13.63;9.67;;;12.00;44.20;;;;;;5028910;28;20056;-82
2021/04/17 09:32:39;;;;;;;15.83;12.23;;;12.30;44.20;;;;;;5031951;28;20496;-82
2021/04/17 09:35:22;;;;;;;13.60;11.60;;;12.50;43.50;;;;;;5032522;28;20359;-82
2021/04/17 09:38:01;;;;;;;15.60;11.23;;;12.40;43.10;;;;;;5027560;28;20026;-83
2021/04/17 09:40:54;;;;;;;26.03;12.93;;;12.20;43.10;;;;;;5024323;28;20109;-82
2021/04/17 09:43:24;;;;;;;;;;;12.00;43.20;;;;;;5029577;28;20034;-82
2021/04/17 09:45:51;;;;;;;18.90;12.97;;;12.00;43.90;;;;;;5031301;28;20055;-82
2021/04/17 09:48:20;;;;;;;16.43;12.70;;;11.90;43.60;;;;;;5031650;28;20033;-82
2021/04/17 09:50:46;;;;;;;17.80;12.23;;;11.80;43.50;;;;;;5017763;28;20022;-82
2021/04/17 09:53:15;;;;;;;18.17;12.13;;;11.70;43.40;;;;;;5047072;28;20397;-83
2021/04/17 09:55:52;;;;;;;16.00;11.77;;;11.70;43.00;;;;;;5031190;28;20049;-83
2021/04/17 09:58:26;;;;;;;15.83;12.83;;;11.50;42.80;;;;;;5013424;28;20101;-83
2021/04/17 10:00:54;;;;;;;15.50;12.37;;;11.30;43.00;;;;;;5032788;28;20427;-83
2021/04/17 10:03:33;;;;;;;17.63;12.23;;;11.40;42.90;;;;;;5031358;28;20083;-83
2021/04/17 10:06:00;;;;;;;15.27;12.50;;;11.20;43.20;;;;;;5029270;28;20481;-83
2021/04/17 10:08:35;;;;;;;16.87;12.47;;;11.10;42.80;;;;;;5024186;28;20103;-83
2021/04/17 10:11:03;;;;;;;15.77;12.33;;;11.10;42.80;;;;;;5019371;28;20026;-82
2021/04/17 10:13:46;;;;;;;13.73;11.50;;;11.30;42.90;;;;;;5024035;28;20060;-83
2021/04/17 10:16:13;;;;;;;18.30;12.35;;;11.30;42.50;;;;;;5028688;28;20036;-83
2021/04/17 10:18:43;;;;;;;15.20;11.77;;;11.20;42.50;;;;;;5028651;28;20030;-83
2021/04/17 10:21:10;;;;;;;13.60;11.70;;;11.20;42.50;;;;;;5030207;28;20029;-82
2021/04/17 10:23:36;;;;;;;20.27;11.47;;;11.30;42.40;;;;;;5032269;28;20033;-82
2021/04/17 10:26:04;;;;;;;14.60;11.70;;;11.30;42.10;;;;;;5032431;28;20342;-83
2021/04/17 10:28:31;;;;;;;15.43;11.10;;;11.40;42.30;;;;;;5038298;28;20524;-83
2021/04/17 10:31:01;;;;;;;12.97;10.47;;;11.60;42.30;;;;;;5033483;28;20028;-82
2021/04/17 10:33:29;;;;;;;14.50;10.73;;;11.80;42.00;;;;;;5031196;28;20092;-83
2021/04/17 10:35:58;;;;;;;17.20;10.70;;;11.90;41.50;;;;;;5025680;28;20029;-83
2021/04/17 10:38:40;;;;;;;15.83;11.30;;;12.10;41.40;;;;;;5026655;28;20425;-83
2021/04/17 10:41:06;;;;;;;13.07;10.83;;;12.10;41.00;;;;;;5032170;28;20113;-82
2021/04/17 10:43:32;;;;;;;12.83;10.80;;;12.10;41.00;;;;;;5025096;28;20177;-83
2021/04/17 10:46:04;;;;;;;12.93;10.00;;;12.10;40.70;;;;;;5025336;28;20029;-83
2021/04/17 10:48:42;;;;;;;13.05;10.25;;;12.10;40.40;;;;;;5029487;28;20030;-82
2021/04/17 10:51:13;;;;;;;11.63;9.10;;;12.20;40.00;;;;;;5028908;28;20099;-82
2021/04/17 10:53:48;;;;;;;11.53;9.60;;;12.20;40.00;;;;;;5022528;28;20047;-82
2021/04/17 10:56:22;;;;;;;10.17;8.67;;;12.10;39.60;;;;;;5050647;28;20094;-82
2021/04/17 10:59:03;;;;;;;11.37;8.70;;;12.20;39.70;;;;;;5035004;28;20025;-82
2021/04/17 11:01:37;;;;;;;13.27;8.30;;;12.10;39.50;;;;;;5034531;28;20076;-83
2021/04/17 11:04:04;;;;;;;11.27;8.80;;;12.00;39.50;;;;;;5022967;28;20117;-83
2021/04/17 11:06:32;;;;;;;11.60;8.27;;;12.00;39.50;;;;;;5027673;28;20045;-82
2021/04/17 11:09:07;;;;;;;13.87;9.97;;;12.00;39.30;;;;;;5026971;28;20385;-82
2021/04/17 11:11:34;;;;;;;12.07;8.13;;;12.20;39.30;;;;;;5028919;28;20029;-82
2021/04/17 11:14:02;;;;;;;14.33;9.07;;;12.30;39.30;;;;;;5027901;28;20022;-81
2021/04/17 11:16:46;;;;;;;11.33;8.70;;;12.30;38.90;;;;;;5029594;28;20026;-82
2021/04/17 11:19:31;;;;;;;11.63;7.67;;;12.30;38.40;;;;;;5044143;28;20037;-84
2021/04/17 11:22:34;;;;;;;11.03;7.90;;;12.30;38.20;;;;;;5032885;28;20033;-84
2021/04/17 11:24:59;;;;;;;9.95;8.27;;;12.30;38.30;;;;;;5033443;28;20416;-84
2021/04/17 11:27:27;;;;;;;11.80;9.43;;;12.30;38.40;;;;;;5033418;28;20029;-85
2021/04/17 11:29:53;;;;;;;10.77;7.70;;;12.40;38.30;;;;;;5033981;28;20026;-83
2021/04/17 11:32:20;;;;;;;9.03;7.70;;;12.50;38.30;;;;;;5034922;28;20025;-83
2021/04/17 11:34:47;;;;;;;10.07;7.73;;;12.60;38.40;;;;;;5032196;28;20029;-83
2021/04/17 11:37:15;;;;;;;10.60;9.03;;;12.70;38.30;;;;;;5031289;28;20025;-83
2021/04/17 11:39:41;;;;;;;11.23;8.40;;;12.80;38.00;;;;;;5026835;28;20509;-83
2021/04/17 11:42:10;;;;;;;9.20;7.97;;;12.90;38.00;;;;;;5033997;28;20063;-84
2021/04/17 11:44:36;;;;;;;9.10;6.30;;;12.90;37.90;;;;;;5032076;28;20029;-84
2021/04/17 11:47:02;;;;;;;9.37;6.83;;;13.00;37.60;;;;;;5034853;28;20378;-84
2021/04/17 11:49:27;;;;;;;9.47;7.83;;;13.00;37.40;;;;;;5033370;28;20025;-84
2021/04/17 11:51:53;;;;;;;10.33;7.90;;;13.00;37.40;;;;;;5033403;28;20036;-84
2021/04/17 11:54:19;;;;;;;11.10;8.33;;;13.10;37.50;;;;;;5025961;28;20068;-84
2021/04/17 11:56:44;;;;;;;10.90;8.03;;;13.10;37.00;;;;;;5033405;28;20071;-84
2021/04/17 11:59:10;;;;;;;10.57;7.97;;;13.10;37.10;;;;;;5016069;28;20061;-84
2021/04/17 12:01:36;;;;;;;10.67;6.73;;;13.10;36.90;;;;;;5024126;28;20033;-84
2021/04/17 12:04:02;;;;;;;9.50;6.70;;;13.40;36.80;;;;;;5032560;28;20555;-84
2021/04/17 12:06:29;;;;;;;6.73;5.10;;;13.70;36.70;;;;;;5032449;28;20033;-84
2021/04/17 12:08:55;;;;;;;7.50;5.87;;;13.90;36.30;;;;;;5033681;28;20089;-84
2021/04/17 12:11:22;;;;;;;7.27;6.30;;;14.00;35.80;;;;;;5030519;28;20021;-84
2021/04/17 12:13:48;;;;;;;9.57;7.23;;;14.10;35.60;;;;;;5020733;28;20029;-84
2021/04/17 12:16:13;;;;;;;7.93;6.73;;;14.20;35.60;;;;;;5033139;28;20029;-84
2021/04/17 12:18:39;;;;;;;9.73;7.03;;;14.40;35.60;;;;;;5033611;28;20433;-84
2021/04/17 12:21:05;;;;;;;7.07;6.00;;;14.50;35.40;;;;;;5032704;28;20079;-82
2021/04/17 12:23:32;;;;;;;7.53;6.57;;;14.50;35.40;;;;;;5032969;28;20140;-82
2021/04/17 12:25:58;;;;;;;6.63;5.57;;;14.50;35.20;;;;;;5021349;28;20049;-82
2021/04/17 12:28:24;;;;;;;7.90;5.50;;;14.40;35.20;;;;;;5034223;28;20102;-83
2021/04/17 12:30:54;;;;;;;6.30;5.50;;;14.30;34.80;;;;;;5032561;28;20112;-82
2021/04/17 12:33:20;;;;;;;8.60;6.30;;;14.30;34.60;;;;;;5022617;28;20025;-83
2021/04/17 12:35:47;;;;;;;13.53;6.73;;;14.20;34.70;;;;;;5029215;28;20057;-82
2021/04/17 12:38:14;;;;;;;9.97;7.87;;;14.10;34.80;;;;;;5034472;28;20021;-83
2021/04/17 12:40:41;;;;;;;11.13;8.97;;;14.10;34.80;;;;;;5032790;28;20033;-83
2021/04/17 12:43:08;;;;;;;11.27;9.00;;;14.00;35.20;;;;;;5032178;28;20035;-84
2021/04/17 12:45:38;;;;;;;9.77;7.87;;;13.90;35.50;;;;;;5031322;28;20030;-84
2021/04/17 12:48:04;;;;;;;9.57;8.30;;;13.90;35.70;;;;;;5015816;28;20401;-83
2021/04/17 12:50:30;;;;;;;9.90;8.13;;;13.80;35.80;;;;;;5028697;28;20026;-84
2021/04/17 12:52:56;;;;;;;12.43;8.83;;;13.80;36.10;;;;;;5026699;28;20022;-84